createdAt,value
2022-09-24T00:00:45.976Z,12.50
2022-09-24T00:03:34.825Z,12.50
2022-09-24T00:06:27.473Z,12.50
2022-09-24T00:09:23.096Z,12.50
2022-09-24T00:12:15.340Z,12.40
2022-09-24T00:15:05.167Z,12.40
2022-09-24T00:17:56.440Z,12.40
2022-09-24T00:20:46.581Z,12.40
2022-09-24T00:23:46.182Z,12.30
2022-09-24T00:26:50.866Z,12.30
2022-09-24T00:29:46.074Z,12.40
2022-09-24T00:32:38.241Z,12.40
2022-09-24T00:35:32.129Z,12.40
2022-09-24T00:38:22.980Z,12.40
2022-09-24T00:41:15.393Z,12.40
2022-09-24T00:44:23.715Z,12.40
2022-09-24T00:47:18.635Z,12.30
2022-09-24T00:50:17.559Z,12.30
2022-09-24T00:53:09.040Z,12.40
2022-09-24T00:55:58.517Z,12.30
2022-09-24T00:58:55.416Z,12.30
2022-09-24T01:01:51.875Z,12.40
2022-09-24T01:04:43.540Z,12.40
2022-09-24T01:07:38.391Z,12.30
2022-09-24T01:10:52.999Z,12.40
2022-09-24T01:14:03.795Z,12.40
2022-09-24T01:16:58.011Z,12.30
2022-09-24T01:20:15.051Z,12.30
2022-09-24T01:23:17.791Z,12.30
2022-09-24T01:26:26.558Z,12.20
2022-09-24T01:29:43.130Z,12.20
2022-09-24T01:32:40.025Z,12.20
2022-09-24T01:35:44.052Z,12.20
2022-09-24T01:38:38.814Z,12.20
2022-09-24T01:41:30.012Z,12.20
2022-09-24T01:44:26.962Z,12.10
2022-09-24T01:47:28.879Z,12.10
2022-09-24T01:50:24.462Z,12.00
2022-09-24T01:53:20.083Z,12.00
2022-09-24T01:56:13.586Z,12.00
2022-09-24T01:59:07.087Z,12.00
2022-09-24T02:02:04.209Z,12.00
2022-09-24T02:05:04.888Z,11.90
2022-09-24T02:08:07.737Z,11.90
2022-09-24T02:11:00.429Z,11.90
2022-09-24T02:13:56.670Z,11.90
2022-09-24T02:16:48.300Z,11.90
2022-09-24T02:19:50.993Z,11.90
2022-09-24T02:22:48.601Z,11.90
2022-09-24T02:25:43.866Z,11.90
2022-09-24T02:28:38.522Z,11.90
2022-09-24T02:31:30.725Z,11.90
2022-09-24T02:34:31.430Z,11.90
2022-09-24T02:37:23.584Z,11.90
2022-09-24T02:40:17.152Z,11.80
2022-09-24T02:43:05.075Z,11.80
2022-09-24T02:45:55.922Z,11.80
2022-09-24T02:48:43.732Z,11.80
2022-09-24T02:51:34.015Z,11.80
2022-09-24T02:54:31.749Z,11.80
2022-09-24T02:57:23.614Z,11.80
2022-09-24T03:00:13.796Z,11.80
2022-09-24T03:03:03.723Z,11.80
2022-09-24T03:05:54.934Z,11.70
2022-09-24T03:08:47.138Z,11.80
2022-09-24T03:11:37.729Z,11.80
2022-09-24T03:14:26.728Z,11.70
2022-09-24T03:17:14.775Z,11.80
2022-09-24T03:20:03.004Z,11.80
2022-09-24T03:22:55.219Z,11.70
2022-09-24T03:25:43.390Z,11.70
2022-09-24T03:28:33.874Z,11.80
2022-09-24T03:31:25.430Z,11.80
2022-09-24T03:34:21.232Z,11.80
2022-09-24T03:37:09.431Z,11.70
2022-09-24T03:40:02.421Z,11.70
2022-09-24T03:42:52.014Z,11.80
2022-09-24T03:45:39.582Z,11.80
2022-09-24T03:48:30.093Z,11.80
2022-09-24T03:51:28.602Z,11.80
2022-09-24T03:54:22.920Z,11.80
2022-09-24T03:57:15.025Z,11.80
2022-09-24T04:00:02.979Z,11.80
2022-09-24T04:02:53.917Z,11.90
2022-09-24T04:05:53.588Z,11.80
2022-09-24T04:08:49.238Z,11.90
2022-09-24T04:11:40.130Z,11.90
2022-09-24T04:14:28.470Z,11.90
2022-09-24T04:17:19.357Z,11.90
2022-09-24T04:20:09.400Z,12.00
2022-09-24T04:22:59.620Z,12.00
2022-09-24T04:25:49.610Z,12.00
2022-09-24T04:28:38.418Z,12.00
2022-09-24T04:31:28.964Z,12.10
2022-09-24T04:34:22.262Z,12.10
2022-09-24T04:37:12.672Z,12.10
2022-09-24T04:40:01.712Z,12.10
2022-09-24T04:42:55.500Z,12.10
2022-09-24T04:45:44.430Z,12.10
2022-09-24T04:48:31.941Z,12.20
2022-09-24T04:51:19.575Z,12.20
2022-09-24T04:54:08.788Z,12.20
2022-09-24T04:57:00.915Z,12.20
2022-09-24T04:59:57.317Z,12.20
2022-09-24T05:02:47.887Z,12.20
2022-09-24T05:05:38.458Z,12.30
2022-09-24T05:08:28.985Z,12.30
2022-09-24T05:11:19.175Z,12.30
2022-09-24T05:14:13.478Z,12.30
2022-09-24T05:17:06.881Z,12.30
2022-09-24T05:19:58.908Z,12.40
2022-09-24T05:22:51.507Z,12.40
2022-09-24T05:25:59.681Z,12.40
2022-09-24T05:28:49.617Z,12.40
2022-09-24T05:31:40.508Z,12.40
2022-09-24T05:34:30.110Z,12.50
2022-09-24T05:37:22.362Z,12.50
2022-09-24T05:40:27.191Z,12.50
2022-09-24T05:43:16.630Z,12.50
2022-09-24T05:46:30.834Z,12.50
2022-09-24T05:49:23.245Z,12.60
2022-09-24T05:52:20.831Z,12.60
2022-09-24T05:55:17.588Z,12.70
2022-09-24T05:58:07.581Z,12.70
2022-09-24T06:01:08.680Z,12.70
2022-09-24T06:04:02.548Z,12.80
2022-09-24T06:07:03.586Z,12.80
2022-09-24T06:10:01.968Z,12.90
2022-09-24T06:12:53.198Z,12.90
2022-09-24T06:15:42.843Z,13.00
2022-09-24T06:18:37.598Z,13.00
2022-09-24T06:21:29.896Z,13.10
2022-09-24T06:24:22.898Z,13.10
2022-09-24T06:27:13.720Z,13.20
2022-09-24T06:30:05.450Z,13.20
2022-09-24T06:32:57.241Z,13.30
2022-09-24T06:35:46.210Z,13.30
2022-09-24T06:38:35.891Z,13.40
2022-09-24T06:41:27.522Z,13.50
2022-09-24T06:44:18.242Z,13.60
2022-09-24T06:47:15.976Z,13.70
2022-09-24T06:50:12.055Z,13.80
2022-09-24T06:53:10.457Z,13.90
2022-09-24T06:56:05.308Z,14.00
2022-09-24T06:59:00.302Z,14.00
2022-09-24T07:01:57.226Z,14.20
2022-09-24T07:04:49.482Z,14.20
2022-09-24T07:07:40.891Z,14.30
2022-09-24T07:10:37.225Z,14.30
2022-09-24T07:13:28.663Z,14.40
2022-09-24T07:16:24.940Z,14.40
2022-09-24T07:19:24.293Z,14.50
2022-09-24T07:22:17.472Z,14.50
2022-09-24T07:25:15.200Z,14.50
2022-09-24T07:28:07.545Z,14.60
2022-09-24T07:31:08.423Z,14.60
2022-09-24T07:34:01.462Z,14.60
2022-09-24T07:36:56.780Z,14.60
2022-09-24T07:39:49.634Z,14.60
2022-09-24T07:42:49.888Z,14.70
2022-09-24T07:45:52.989Z,14.70
2022-09-24T07:48:46.431Z,14.70
2022-09-24T07:51:44.287Z,14.70
2022-09-24T07:54:32.021Z,14.80
2022-09-24T07:57:19.745Z,14.80
2022-09-24T08:00:14.148Z,14.80
2022-09-24T08:03:03.263Z,14.90
2022-09-24T08:05:50.644Z,14.90
2022-09-24T08:08:40.295Z,15.00
2022-09-24T08:11:28.850Z,15.00
2022-09-24T08:14:19.657Z,15.00
2022-09-24T08:17:09.757Z,15.10
2022-09-24T08:19:59.223Z,15.10
2022-09-24T08:22:46.634Z,15.20
2022-09-24T08:25:36.921Z,15.20
2022-09-24T08:28:26.667Z,15.20
2022-09-24T08:31:21.555Z,15.30
2022-09-24T08:34:09.564Z,15.30
2022-09-24T08:36:58.008Z,15.30
2022-09-24T08:39:51.662Z,15.40
2022-09-24T08:42:50.941Z,15.40
2022-09-24T08:46:00.372Z,15.40
2022-09-24T08:48:51.956Z,15.50
2022-09-24T08:51:48.384Z,15.50
2022-09-24T08:54:36.670Z,15.50
2022-09-24T08:57:31.738Z,15.50
2022-09-24T09:00:20.739Z,15.60
2022-09-24T09:03:25.905Z,15.60
2022-09-24T09:06:31.709Z,15.70
2022-09-24T09:09:22.465Z,15.70
2022-09-24T09:12:19.332Z,15.80
2022-09-24T09:15:12.110Z,15.80
2022-09-24T09:18:08.089Z,15.90
2022-09-24T09:21:05.909Z,15.90
2022-09-24T09:24:03.568Z,16.00
2022-09-24T09:26:55.451Z,16.00
2022-09-24T09:29:50.802Z,16.10
2022-09-24T09:33:00.058Z,16.10
2022-09-24T09:35:57.001Z,16.20
2022-09-24T09:38:56.242Z,16.20
2022-09-24T09:41:56.513Z,16.30
2022-09-24T09:44:47.383Z,16.30
2022-09-24T09:47:49.942Z,16.30
2022-09-24T09:50:48.157Z,16.30
2022-09-24T09:53:40.204Z,16.30
2022-09-24T09:56:31.746Z,16.30
2022-09-24T09:59:28.815Z,16.30
2022-09-24T10:02:31.582Z,16.30
2022-09-24T10:05:27.388Z,16.40
2022-09-24T10:08:26.373Z,16.40
2022-09-24T10:11:21.499Z,16.40
2022-09-24T10:14:20.365Z,16.40
2022-09-24T10:17:20.109Z,16.50
2022-09-24T10:20:20.892Z,16.60
2022-09-24T10:23:21.736Z,16.50
2022-09-24T10:26:14.856Z,16.60
2022-09-24T10:29:16.846Z,16.60
2022-09-24T10:32:08.672Z,16.60
2022-09-24T10:34:57.035Z,16.60
2022-09-24T10:37:56.392Z,16.60
2022-09-24T10:40:46.396Z,16.70
2022-09-24T10:43:40.545Z,16.70
2022-09-24T10:46:52.714Z,16.70
2022-09-24T10:49:59.080Z,16.70
2022-09-24T10:52:54.935Z,16.70
2022-09-24T10:55:54.431Z,16.70
2022-09-24T10:59:09.350Z,16.70
2022-09-24T11:02:25.882Z,16.70
2022-09-24T11:05:20.331Z,16.70
2022-09-24T11:08:17.630Z,16.70
2022-09-24T11:11:20.804Z,16.70
2022-09-24T11:14:27.384Z,16.70
2022-09-24T11:17:28.733Z,16.70
2022-09-24T11:20:31.284Z,16.70
2022-09-24T11:23:38.877Z,16.70
2022-09-24T11:26:44.830Z,16.80
2022-09-24T11:29:50.304Z,16.80
2022-09-24T11:32:49.780Z,16.80
2022-09-24T11:35:57.539Z,16.90
2022-09-24T11:39:07.114Z,16.90
2022-09-24T11:42:06.708Z,16.90
2022-09-24T11:45:07.385Z,17.00
2022-09-24T11:48:10.972Z,17.00
2022-09-24T11:51:10.439Z,17.00
2022-09-24T11:54:04.275Z,17.00
2022-09-24T11:56:53.822Z,17.00
2022-09-24T11:59:50.713Z,17.00
2022-09-24T12:02:46.930Z,17.00
2022-09-24T12:05:39.963Z,17.10
2022-09-24T12:08:36.933Z,17.10
2022-09-24T12:11:33.287Z,17.10
2022-09-24T12:14:31.845Z,17.10
2022-09-24T12:17:28.418Z,17.10
2022-09-24T12:20:23.398Z,17.10
2022-09-24T12:23:23.938Z,17.10
2022-09-24T12:26:22.697Z,17.10
2022-09-24T12:29:46.106Z,17.20
2022-09-24T12:32:56.437Z,17.20
2022-09-24T12:36:01.728Z,17.20
2022-09-24T12:38:51.719Z,17.30
2022-09-24T12:41:45.742Z,17.20
2022-09-24T12:44:43.453Z,17.30
2022-09-24T12:47:42.864Z,17.30
2022-09-24T12:50:33.835Z,17.40
2022-09-24T12:53:28.201Z,17.50
2022-09-24T12:56:28.095Z,17.50
2022-09-24T12:59:29.333Z,17.60
2022-09-24T13:02:22.032Z,17.70
2022-09-24T13:05:29.118Z,17.70
2022-09-24T13:08:29.199Z,17.80
2022-09-24T13:11:36.778Z,17.80
2022-09-24T13:14:29.640Z,17.80
2022-09-24T13:17:18.741Z,17.90
2022-09-24T13:20:19.945Z,17.90
2022-09-24T13:23:35.446Z,17.90
2022-09-24T13:26:35.577Z,18.00
2022-09-24T13:29:27.772Z,18.10
2022-09-24T13:32:21.793Z,18.10
2022-09-24T13:35:21.840Z,18.10
2022-09-24T13:38:18.669Z,18.20
2022-09-24T13:41:25.298Z,18.20
2022-09-24T13:44:22.834Z,18.20
2022-09-24T13:47:18.081Z,18.20
2022-09-24T13:50:16.278Z,18.30
2022-09-24T13:53:07.878Z,18.30
2022-09-24T13:56:01.168Z,18.40
2022-09-24T13:58:52.136Z,18.40
2022-09-24T14:01:48.838Z,18.40
2022-09-24T14:05:00.385Z,18.30
2022-09-24T14:07:57.124Z,18.40
2022-09-24T14:10:47.732Z,18.40
2022-09-24T14:13:46.481Z,18.40
2022-09-24T14:16:36.327Z,18.40
2022-09-24T14:19:25.511Z,18.40
2022-09-24T14:22:20.326Z,18.50
2022-09-24T14:25:11.504Z,18.50
2022-09-24T14:28:06.185Z,18.50
2022-09-24T14:30:57.927Z,18.50
2022-09-24T14:33:49.528Z,18.50
2022-09-24T14:36:38.495Z,18.60
2022-09-24T14:39:29.311Z,18.50
2022-09-24T14:42:25.936Z,18.50
2022-09-24T14:45:21.734Z,18.50
2022-09-24T14:48:20.818Z,18.50
2022-09-24T14:51:26.235Z,18.50
2022-09-24T14:54:29.631Z,18.50
2022-09-24T14:57:26.439Z,18.50
2022-09-24T15:00:25.261Z,18.50
2022-09-24T15:03:19.126Z,18.50
2022-09-24T15:06:16.654Z,18.50
2022-09-24T15:09:10.241Z,18.50
2022-09-24T15:12:12.335Z,18.40
2022-09-24T15:15:05.887Z,18.40
2022-09-24T15:17:55.233Z,18.40
2022-09-24T15:20:44.642Z,18.30
2022-09-24T15:23:32.646Z,18.30
2022-09-24T15:26:23.613Z,18.20
2022-09-24T15:29:25.149Z,18.20
2022-09-24T15:32:18.379Z,18.10
2022-09-24T15:35:12.058Z,18.10
2022-09-24T15:38:03.090Z,18.10
2022-09-24T15:40:54.206Z,18.00
2022-09-24T15:43:41.963Z,18.10
2022-09-24T15:46:40.359Z,18.00
2022-09-24T15:49:29.459Z,17.90
2022-09-24T15:52:24.667Z,17.90
2022-09-24T15:55:20.170Z,17.90
2022-09-24T15:58:19.107Z,17.90
2022-09-24T16:01:11.988Z,17.80
2022-09-24T16:04:00.863Z,17.80
2022-09-24T16:06:49.777Z,17.70
2022-09-24T16:09:41.130Z,17.70
2022-09-24T16:12:28.711Z,17.70
2022-09-24T16:15:23.121Z,17.70
2022-09-24T16:18:13.792Z,17.70
2022-09-24T16:21:07.781Z,17.60
2022-09-24T16:23:56.563Z,17.60
2022-09-24T16:26:43.478Z,17.50
2022-09-24T16:29:30.690Z,17.50
2022-09-24T16:32:17.855Z,17.50
2022-09-24T16:35:05.210Z,17.50
2022-09-24T16:37:53.954Z,17.40
2022-09-24T16:40:41.017Z,17.40
2022-09-24T16:43:31.530Z,17.40
2022-09-24T16:46:20.876Z,17.30
2022-09-24T16:49:12.879Z,17.30
2022-09-24T16:52:03.054Z,17.30
2022-09-24T16:54:53.672Z,17.20
2022-09-24T16:57:44.504Z,17.20
2022-09-24T17:00:33.697Z,17.20
2022-09-24T17:03:23.379Z,17.20
2022-09-24T17:06:19.698Z,17.10
2022-09-24T17:09:21.403Z,17.10
2022-09-24T17:12:09.529Z,17.00
2022-09-24T17:15:03.024Z,17.00
2022-09-24T17:17:56.328Z,16.90
2022-09-24T17:20:45.883Z,16.90
2022-09-24T17:23:34.446Z,16.90
2022-09-24T17:26:27.586Z,16.90
2022-09-24T17:29:21.053Z,16.80
2022-09-24T17:32:11.265Z,16.80
2022-09-24T17:35:00.978Z,16.80
2022-09-24T17:37:50.590Z,16.70
2022-09-24T17:40:43.344Z,16.70
2022-09-24T17:43:37.075Z,16.70
2022-09-24T17:46:27.919Z,16.60
2022-09-24T17:49:19.152Z,16.60
2022-09-24T17:52:06.759Z,16.60
2022-09-24T17:54:57.465Z,16.60
2022-09-24T17:57:48.727Z,16.60
2022-09-24T18:00:45.588Z,16.50
2022-09-24T18:03:36.870Z,16.50
2022-09-24T18:06:33.239Z,16.50
2022-09-24T18:09:21.095Z,16.50
2022-09-24T18:12:16.348Z,16.40
2022-09-24T18:15:05.646Z,16.40
2022-09-24T18:17:56.878Z,16.40
2022-09-24T18:20:46.735Z,16.40
2022-09-24T18:23:39.523Z,16.40
2022-09-24T18:26:32.715Z,16.30
2022-09-24T18:29:26.428Z,16.30
2022-09-24T18:32:18.464Z,16.30
2022-09-24T18:35:09.333Z,16.30
2022-09-24T18:37:58.293Z,16.20
2022-09-24T18:40:46.252Z,16.20
2022-09-24T18:43:34.040Z,16.20
2022-09-24T18:46:22.798Z,16.10
2022-09-24T18:49:20.785Z,16.10
2022-09-24T18:52:08.404Z,16.20
2022-09-24T18:54:57.371Z,16.20
2022-09-24T18:57:44.966Z,16.10
2022-09-24T19:00:50.776Z,16.10
2022-09-24T19:03:37.558Z,16.10
2022-09-24T19:06:23.987Z,16.10
2022-09-24T19:09:17.612Z,16.10
2022-09-24T19:12:08.436Z,16.20
2022-09-24T19:15:00.780Z,16.10
2022-09-24T19:17:49.183Z,16.10
2022-09-24T19:20:38.145Z,16.10
2022-09-24T19:23:30.545Z,16.10
2022-09-24T19:26:21.671Z,16.10
2022-09-24T19:29:13.812Z,16.10
2022-09-24T19:32:03.397Z,16.10
2022-09-24T19:34:51.075Z,16.10
2022-09-24T19:37:43.972Z,16.00
2022-09-24T19:40:33.120Z,16.00
2022-09-24T19:43:20.846Z,16.00
2022-09-24T19:46:17.503Z,16.00
2022-09-24T19:49:08.325Z,16.00
2022-09-24T19:52:00.045Z,15.90
2022-09-24T19:54:51.355Z,16.00
2022-09-24T19:57:39.626Z,15.90
2022-09-24T20:00:27.162Z,15.90
2022-09-24T20:03:19.585Z,15.90
2022-09-24T20:06:13.293Z,15.90
2022-09-24T20:09:04.178Z,15.90
2022-09-24T20:11:52.319Z,15.90
2022-09-24T20:14:54.734Z,15.90
2022-09-24T20:17:50.748Z,15.90
2022-09-24T20:20:41.506Z,15.90
2022-09-24T20:23:34.643Z,15.90
2022-09-24T20:26:36.530Z,15.90
2022-09-24T20:29:32.861Z,15.90
2022-09-24T20:32:19.620Z,15.80
2022-09-24T20:35:06.187Z,15.80
2022-09-24T20:37:59.154Z,15.80
2022-09-24T20:40:51.924Z,15.80
2022-09-24T20:43:40.662Z,15.80
2022-09-24T20:46:35.250Z,15.80
2022-09-24T20:49:26.375Z,15.80
2022-09-24T20:52:16.460Z,15.80
2022-09-24T20:55:08.967Z,15.80
2022-09-24T20:57:59.169Z,15.80
2022-09-24T21:00:56.908Z,15.70
2022-09-24T21:03:50.176Z,15.70
2022-09-24T21:06:41.969Z,15.70
2022-09-24T21:09:32.838Z,15.60
2022-09-24T21:12:23.425Z,15.60
2022-09-24T21:15:23.518Z,15.60
2022-09-24T21:18:22.691Z,15.60
2022-09-24T21:21:17.075Z,15.60
2022-09-24T21:24:16.045Z,15.60
2022-09-24T21:27:13.275Z,15.60
2022-09-24T21:30:02.558Z,15.60
2022-09-24T21:32:50.367Z,15.50
2022-09-24T21:35:40.019Z,15.60
2022-09-24T21:38:27.639Z,15.60
2022-09-24T21:41:23.022Z,15.50
2022-09-24T21:44:18.047Z,15.50
2022-09-24T21:47:09.712Z,15.40
2022-09-24T21:49:57.809Z,15.40
2022-09-24T21:52:45.230Z,15.40
2022-09-24T21:55:36.560Z,15.40
2022-09-24T21:58:26.501Z,15.40
2022-09-24T22:01:22.950Z,15.30
2022-09-24T22:04:20.295Z,15.30
2022-09-24T22:07:08.267Z,15.30
2022-09-24T22:10:00.574Z,15.30
2022-09-24T22:12:51.321Z,15.40
2022-09-24T22:15:44.675Z,15.30
2022-09-24T22:18:34.956Z,15.30
2022-09-24T22:21:28.499Z,15.30
2022-09-24T22:24:19.494Z,15.30
2022-09-24T22:27:06.986Z,15.30
2022-09-24T22:30:00.935Z,15.20
2022-09-24T22:32:50.696Z,15.20
2022-09-24T22:35:55.078Z,15.20
2022-09-24T22:38:48.325Z,15.10
2022-09-24T22:41:44.329Z,15.10
2022-09-24T22:44:36.169Z,15.00
2022-09-24T22:47:23.693Z,15.00
2022-09-24T22:50:15.753Z,14.90
2022-09-24T22:53:04.240Z,14.90
2022-09-24T22:56:23.436Z,14.80
2022-09-24T22:59:16.233Z,14.80
2022-09-24T23:02:05.499Z,14.70
2022-09-24T23:04:58.262Z,14.60
2022-09-24T23:07:48.754Z,14.50
2022-09-24T23:10:39.366Z,14.50
2022-09-24T23:13:31.186Z,14.40
2022-09-24T23:16:20.958Z,14.40
2022-09-24T23:19:14.531Z,14.30
2022-09-24T23:22:04.789Z,14.30
2022-09-24T23:24:55.076Z,14.20
2022-09-24T23:27:45.110Z,14.10
2022-09-24T23:30:33.888Z,14.10
2022-09-24T23:33:21.660Z,14.00
2022-09-24T23:36:15.517Z,13.90
2022-09-24T23:39:06.742Z,13.90
2022-09-24T23:41:57.018Z,13.80
2022-09-24T23:44:48.965Z,13.80
2022-09-24T23:47:38.102Z,13.70
2022-09-24T23:50:32.323Z,13.70
2022-09-24T23:53:22.184Z,13.60
2022-09-24T23:56:11.003Z,13.60
2022-09-24T23:58:58.624Z,13.50
